createdAt,value
2024-01-21T00:00:14.367Z,11.40
2024-01-21T00:02:43.475Z,12.97
2024-01-21T00:05:11.952Z,11.00
2024-01-21T00:07:40.970Z,13.87
2024-01-21T00:10:11.072Z,12.70
2024-01-21T00:12:40.847Z,11.00
2024-01-21T00:15:12.058Z,10.67
2024-01-21T00:17:40.517Z,11.60
2024-01-21T00:20:09.692Z,12.03
2024-01-21T00:22:38.115Z,10.43
2024-01-21T00:25:07.709Z,9.80
2024-01-21T00:27:36.137Z,12.80
2024-01-21T00:30:05.591Z,11.80
2024-01-21T00:32:35.526Z,11.33
2024-01-21T00:35:04.640Z,11.30
2024-01-21T00:37:33.154Z,11.73
2024-01-21T00:40:01.495Z,13.00
2024-01-21T00:42:29.860Z,12.60
2024-01-21T00:44:58.209Z,15.10
2024-01-21T00:47:27.394Z,16.00
2024-01-21T00:49:57.722Z,14.87
2024-01-21T00:52:26.274Z,14.73
2024-01-21T00:54:55.255Z,15.20
2024-01-21T00:57:23.775Z,13.87
2024-01-21T00:59:52.327Z,14.10
2024-01-21T01:02:20.795Z,13.10
2024-01-21T01:04:50.071Z,14.23
2024-01-21T01:07:19.937Z,11.30
2024-01-21T01:09:48.402Z,6.60
2024-01-21T01:12:16.968Z,6.70
2024-01-21T01:14:45.661Z,7.60
2024-01-21T01:17:14.564Z,8.03
2024-01-21T01:19:43.724Z,8.83
2024-01-21T01:22:13.518Z,7.80
2024-01-21T01:24:44.473Z,7.87
2024-01-21T01:27:12.900Z,8.10
2024-01-21T01:29:41.265Z,8.40
2024-01-21T01:32:09.664Z,7.10
2024-01-21T01:34:37.985Z,7.23
2024-01-21T01:37:07.608Z,8.47
2024-01-21T01:39:35.953Z,9.20
2024-01-21T01:42:06.460Z,9.13
2024-01-21T01:44:34.765Z,11.37
2024-01-21T01:47:03.354Z,11.60
2024-01-21T01:49:32.037Z,10.90
2024-01-21T01:52:00.637Z,10.80
2024-01-21T01:54:31.862Z,12.47
2024-01-21T01:57:00.754Z,11.70
2024-01-21T01:59:34.148Z,13.67
2024-01-21T02:02:03.340Z,12.27
2024-01-21T02:04:32.892Z,13.40
2024-01-21T02:07:02.434Z,12.37
2024-01-21T02:09:31.777Z,10.90
2024-01-21T02:12:00.288Z,11.70
2024-01-21T02:14:30.053Z,12.80
2024-01-21T02:16:58.717Z,13.90
2024-01-21T02:19:28.679Z,12.15
2024-01-21T02:21:57.332Z,11.10
2024-01-21T02:24:33.265Z,12.83
2024-01-21T02:27:01.754Z,13.20
2024-01-21T02:29:30.112Z,13.07
2024-01-21T02:31:59.691Z,12.90
2024-01-21T02:34:28.100Z,13.63
2024-01-21T02:36:56.788Z,12.10
2024-01-21T02:39:25.375Z,13.80
2024-01-21T02:41:55.305Z,13.40
2024-01-21T02:44:23.788Z,13.83
2024-01-21T02:46:52.789Z,13.27
2024-01-21T02:49:22.488Z,13.00
2024-01-21T02:51:50.989Z,13.43
2024-01-21T02:54:19.662Z,13.03
2024-01-21T02:56:47.999Z,12.23
2024-01-21T02:59:17.821Z,12.10
2024-01-21T03:01:46.230Z,10.67
2024-01-21T03:04:15.365Z,12.40
2024-01-21T03:06:45.055Z,12.20
2024-01-21T03:09:13.675Z,12.33
2024-01-21T03:11:42.057Z,11.77
2024-01-21T03:14:10.393Z,41.17
2024-01-21T03:16:40.198Z,12.25
2024-01-21T03:19:08.623Z,14.55
2024-01-21T03:21:37.099Z,9.77
2024-01-21T03:24:06.335Z,12.17
2024-01-21T03:26:34.753Z,12.75
2024-01-21T03:29:03.269Z,11.18
2024-01-21T03:31:31.854Z,10.70
2024-01-21T03:34:05.113Z,11.65
2024-01-21T03:36:33.680Z,11.10
2024-01-21T03:39:02.100Z,11.90
2024-01-21T03:41:30.438Z,11.13
2024-01-21T03:43:59.141Z,11.27
2024-01-21T03:46:27.551Z,11.63
2024-01-21T03:48:56.367Z,11.60
2024-01-21T03:51:26.481Z,10.93
2024-01-21T03:53:54.898Z,12.00
2024-01-21T03:56:23.233Z,11.10
2024-01-21T03:58:52.241Z,12.15
2024-01-21T04:01:20.698Z,11.63
2024-01-21T04:03:49.264Z,12.07
2024-01-21T04:06:17.860Z,10.95
2024-01-21T04:08:47.672Z,10.80
2024-01-21T04:11:16.211Z,11.10
2024-01-21T04:13:44.528Z,10.43
2024-01-21T04:16:13.131Z,11.00
2024-01-21T04:18:41.991Z,11.50
2024-01-21T04:21:10.575Z,10.30
2024-01-21T04:23:39.068Z,10.27
2024-01-21T04:26:09.361Z,11.43
2024-01-21T04:28:39.326Z,12.07
2024-01-21T04:31:08.279Z,12.05
2024-01-21T04:33:38.903Z,11.90
2024-01-21T04:36:09.821Z,11.50
2024-01-21T04:38:38.503Z,12.18
2024-01-21T04:41:08.405Z,11.25
2024-01-21T04:43:36.929Z,10.38
2024-01-21T04:46:05.583Z,10.98
2024-01-21T04:48:34.208Z,10.70
2024-01-21T04:51:03.410Z,9.90
2024-01-21T04:53:31.842Z,10.40
2024-01-21T04:56:00.191Z,10.77
2024-01-21T04:58:30.017Z,9.98
2024-01-21T05:00:59.037Z,11.43
2024-01-21T05:03:27.668Z,10.25
2024-01-21T05:05:58.643Z,11.45
2024-01-21T05:08:27.574Z,10.75
2024-01-21T05:10:55.885Z,9.88
2024-01-21T05:13:28.724Z,10.65
2024-01-21T05:15:59.989Z,10.20
2024-01-21T05:18:30.985Z,9.32
2024-01-21T05:20:59.354Z,9.35
2024-01-21T05:23:27.757Z,11.23
2024-01-21T05:25:56.257Z,13.02
2024-01-21T05:28:24.665Z,9.73
2024-01-21T05:30:53.113Z,10.00
2024-01-21T05:33:24.171Z,10.30
2024-01-21T05:35:52.539Z,8.90
2024-01-21T05:38:20.896Z,9.13
2024-01-21T05:40:49.250Z,9.25
2024-01-21T05:43:17.686Z,9.30
2024-01-21T05:45:47.204Z,9.00
2024-01-21T05:48:16.136Z,9.10
2024-01-21T05:50:46.021Z,9.90
2024-01-21T05:53:14.478Z,9.75
2024-01-21T05:55:43.522Z,10.50
2024-01-21T05:58:12.087Z,10.70
2024-01-21T06:00:40.556Z,10.43
2024-01-21T06:03:09.184Z,9.82
2024-01-21T06:05:37.747Z,9.75
2024-01-21T06:08:08.485Z,11.07
2024-01-21T06:10:36.968Z,9.73
2024-01-21T06:13:06.466Z,9.95
2024-01-21T06:15:36.064Z,10.18
2024-01-21T06:18:05.081Z,11.18
2024-01-21T06:20:33.866Z,10.07
2024-01-21T06:23:02.677Z,10.98
2024-01-21T06:25:32.529Z,11.32
2024-01-21T06:28:01.117Z,11.18
2024-01-21T06:30:30.801Z,10.17
2024-01-21T06:33:03.052Z,10.40
2024-01-21T06:35:32.127Z,9.73
2024-01-21T06:38:00.477Z,10.32
2024-01-21T06:40:28.928Z,10.82
2024-01-21T06:42:58.764Z,9.88
2024-01-21T06:45:27.267Z,10.88
2024-01-21T06:47:58.276Z,8.07
2024-01-21T06:50:29.204Z,8.48
2024-01-21T06:52:57.654Z,9.82
2024-01-21T06:55:27.183Z,9.05
2024-01-21T06:57:55.759Z,9.10
2024-01-21T07:00:25.771Z,9.15
2024-01-21T07:02:54.365Z,9.27
2024-01-21T07:05:23.092Z,8.13
2024-01-21T07:07:51.464Z,8.95
2024-01-21T07:10:19.944Z,8.70
2024-01-21T07:12:49.001Z,9.38
2024-01-21T07:15:17.570Z,9.93
2024-01-21T07:17:47.743Z,9.60
2024-01-21T07:20:16.376Z,10.10
2024-01-21T07:22:44.859Z,11.13
2024-01-21T07:25:15.628Z,11.23
2024-01-21T07:27:45.032Z,14.15
2024-01-21T07:30:14.578Z,15.60
2024-01-21T07:32:43.779Z,14.93
2024-01-21T07:35:14.520Z,13.87
2024-01-21T07:37:42.919Z,14.03
2024-01-21T07:40:12.818Z,13.90
2024-01-21T07:42:41.461Z,11.30
2024-01-21T07:45:10.753Z,12.00
2024-01-21T07:47:39.220Z,11.53
2024-01-21T07:50:08.652Z,18.83
2024-01-21T07:52:39.234Z,11.97
2024-01-21T07:55:08.963Z,10.20
2024-01-21T07:57:38.329Z,11.57
2024-01-21T08:00:09.123Z,11.10
2024-01-21T08:02:37.529Z,10.43
2024-01-21T08:05:06.759Z,9.80
2024-01-21T08:07:35.118Z,10.00
2024-01-21T08:10:06.150Z,9.77
2024-01-21T08:12:37.869Z,9.80
2024-01-21T08:15:07.202Z,9.57
2024-01-21T08:17:36.541Z,10.17
2024-01-21T08:20:06.926Z,8.50
2024-01-21T08:22:35.967Z,9.20
2024-01-21T08:25:07.327Z,9.30
2024-01-21T08:27:36.349Z,10.40
2024-01-21T08:30:06.647Z,8.00
2024-01-21T08:32:34.994Z,9.63
2024-01-21T08:35:04.036Z,9.20
2024-01-21T08:37:32.642Z,8.80
2024-01-21T08:40:01.184Z,9.43
2024-01-21T08:42:31.112Z,9.20
2024-01-21T08:44:59.827Z,8.40
2024-01-21T08:47:28.290Z,8.63
2024-01-21T08:49:56.738Z,8.50
2024-01-21T08:52:25.182Z,8.97
2024-01-21T08:54:54.479Z,9.00
2024-01-21T08:57:23.288Z,8.70
2024-01-21T08:59:55.633Z,9.03
2024-01-21T09:02:24.247Z,9.70
2024-01-21T09:04:52.717Z,9.40
2024-01-21T09:07:21.198Z,9.13
2024-01-21T09:09:49.611Z,8.50
2024-01-21T09:12:18.377Z,8.93
2024-01-21T09:14:46.839Z,8.40
2024-01-21T09:17:17.162Z,9.37
2024-01-21T09:19:45.847Z,8.90
2024-01-21T09:22:14.670Z,10.47
2024-01-21T09:24:43.274Z,10.27
2024-01-21T09:27:11.705Z,9.33
2024-01-21T09:29:40.342Z,8.80
2024-01-21T09:32:10.897Z,8.70
2024-01-21T09:34:41.834Z,8.90
2024-01-21T09:37:10.777Z,7.03
2024-01-21T09:39:39.592Z,8.40
2024-01-21T09:42:09.659Z,8.50
2024-01-21T09:44:38.622Z,7.90
2024-01-21T09:47:07.402Z,7.90
2024-01-21T09:49:36.536Z,7.10
2024-01-21T09:52:07.489Z,7.77
2024-01-21T09:54:36.156Z,6.90
2024-01-21T09:57:06.821Z,7.40
2024-01-21T09:59:35.421Z,8.10
2024-01-21T10:02:04.038Z,8.30
2024-01-21T10:04:35.513Z,7.23
2024-01-21T10:07:05.633Z,7.10
2024-01-21T10:09:36.748Z,7.23
2024-01-21T10:12:06.895Z,6.37
2024-01-21T10:14:36.752Z,6.83
2024-01-21T10:17:05.555Z,6.60
2024-01-21T10:19:35.984Z,5.43
2024-01-21T10:22:15.031Z,5.47
2024-01-21T10:24:45.012Z,6.33
2024-01-21T10:27:13.957Z,5.83
2024-01-21T10:29:44.393Z,5.10
2024-01-21T10:32:13.962Z,6.17
2024-01-21T10:34:45.239Z,9.20
2024-01-21T10:37:17.500Z,5.00
2024-01-21T10:39:47.713Z,6.30
2024-01-21T10:42:16.754Z,8.47
2024-01-21T10:44:46.263Z,8.67
2024-01-21T10:47:15.747Z,27.93
2024-01-21T10:49:46.542Z,7.97
2024-01-21T10:52:18.104Z,6.50
2024-01-21T10:54:48.580Z,4.40
2024-01-21T10:57:19.023Z,12.73
2024-01-21T10:59:51.730Z,5.10
2024-01-21T11:02:21.754Z,5.93
2024-01-21T11:04:50.853Z,5.80
2024-01-21T11:07:21.591Z,5.90
2024-01-21T11:09:51.313Z,6.20
2024-01-21T11:12:20.023Z,5.33
2024-01-21T11:14:49.444Z,7.00
2024-01-21T11:17:19.912Z,7.00
2024-01-21T11:19:53.982Z,5.60
2024-01-21T11:22:25.172Z,4.77
2024-01-21T11:24:56.522Z,6.27
2024-01-21T11:27:27.080Z,6.37
2024-01-21T11:29:57.630Z,7.60
2024-01-21T11:32:28.432Z,6.10
2024-01-21T11:34:58.630Z,4.10
2024-01-21T11:37:29.691Z,4.83
2024-01-21T11:39:58.201Z,4.60
2024-01-21T11:42:27.713Z,4.90
2024-01-21T11:45:05.217Z,10.63
2024-01-21T11:47:34.396Z,5.60
2024-01-21T11:50:02.853Z,4.47
2024-01-21T11:52:32.776Z,3.77
2024-01-21T11:55:01.353Z,6.57
2024-01-21T11:57:30.602Z,2.57
2024-01-21T11:59:59.156Z,2.83
2024-01-21T12:02:27.629Z,2.87
2024-01-21T12:04:56.962Z,4.20
2024-01-21T12:07:28.282Z,5.43
2024-01-21T12:09:58.235Z,3.73
2024-01-21T12:12:28.888Z,4.27
2024-01-21T12:14:58.997Z,5.20
2024-01-21T12:17:28.730Z,5.00
2024-01-21T12:19:57.292Z,5.40
2024-01-21T12:22:38.433Z,4.70
2024-01-21T12:25:09.588Z,4.73
2024-01-21T12:27:38.220Z,4.20
2024-01-21T12:30:13.825Z,5.20
2024-01-21T12:32:50.303Z,4.43
2024-01-21T12:35:24.650Z,4.30
2024-01-21T12:37:54.070Z,4.20
2024-01-21T12:40:23.925Z,4.60
2024-01-21T12:42:56.007Z,4.50
2024-01-21T12:45:24.561Z,4.73
2024-01-21T12:47:53.334Z,5.07
2024-01-21T12:50:22.121Z,3.57
2024-01-21T12:52:51.229Z,4.50
2024-01-21T12:55:19.584Z,2.90
2024-01-21T12:57:50.310Z,4.00
2024-01-21T13:00:20.260Z,3.60
2024-01-21T13:02:49.574Z,2.80
2024-01-21T13:05:19.833Z,3.10
2024-01-21T13:07:48.290Z,3.60
2024-01-21T13:10:16.647Z,3.67
2024-01-21T13:12:45.235Z,3.33
2024-01-21T13:15:15.692Z,3.77
2024-01-21T13:17:44.189Z,3.43
2024-01-21T13:20:13.375Z,4.23
2024-01-21T13:22:41.899Z,5.70
2024-01-21T13:25:10.727Z,2.93
2024-01-21T13:27:46.793Z,2.90
2024-01-21T13:30:34.419Z,2.50
2024-01-21T13:33:02.804Z,2.03
2024-01-21T13:35:34.989Z,2.53
2024-01-21T13:38:06.177Z,2.67
2024-01-21T13:40:34.808Z,2.80
2024-01-21T13:43:03.233Z,4.00
2024-01-21T13:45:33.638Z,3.00
2024-01-21T13:48:03.725Z,4.93
2024-01-21T13:50:32.410Z,6.40
2024-01-21T13:53:02.294Z,5.10
2024-01-21T13:55:30.993Z,5.43
2024-01-21T13:58:00.293Z,9.43
2024-01-21T14:00:28.952Z,22.10
2024-01-21T14:03:00.475Z,26.13
2024-01-21T14:05:30.365Z,24.13
2024-01-21T14:07:59.057Z,6.67
2024-01-21T14:10:27.981Z,8.50
2024-01-21T14:12:56.651Z,7.20
2024-01-21T14:15:26.541Z,4.37
2024-01-21T14:17:56.248Z,7.27
2024-01-21T14:20:28.921Z,5.17
2024-01-21T14:22:57.301Z,5.00
2024-01-21T14:25:29.016Z,6.27
2024-01-21T14:28:00.832Z,5.30
2024-01-21T14:30:35.822Z,4.13
2024-01-21T14:33:05.396Z,4.87
2024-01-21T14:35:35.618Z,4.93
2024-01-21T14:38:04.107Z,5.00
2024-01-21T14:40:32.670Z,4.97
2024-01-21T14:43:01.659Z,7.50
2024-01-21T14:45:31.146Z,5.13
2024-01-21T14:48:00.116Z,5.10
2024-01-21T14:50:28.565Z,4.40
2024-01-21T14:52:58.519Z,4.57
2024-01-21T14:55:26.871Z,5.00
2024-01-21T14:57:58.332Z,4.60
2024-01-21T15:00:26.959Z,5.77
2024-01-21T15:02:56.228Z,11.57
2024-01-21T15:05:24.621Z,6.40
2024-01-21T15:07:53.068Z,5.10
2024-01-21T15:10:23.064Z,5.70
2024-01-21T15:12:51.406Z,4.70
2024-01-21T15:15:28.258Z,6.20
2024-01-21T15:17:56.873Z,4.93
2024-01-21T15:20:26.291Z,5.43
2024-01-21T15:22:54.934Z,6.17
2024-01-21T15:25:26.098Z,5.50
2024-01-21T15:27:55.044Z,5.83
2024-01-21T15:30:23.536Z,5.00
2024-01-21T15:32:52.126Z,6.00
2024-01-21T15:35:21.616Z,6.00
2024-01-21T15:37:52.190Z,5.73
2024-01-21T15:40:20.566Z,6.40
2024-01-21T15:42:50.323Z,5.40
2024-01-21T15:45:19.005Z,7.07
2024-01-21T15:47:48.223Z,9.53
2024-01-21T15:50:16.782Z,17.83
2024-01-21T15:52:45.476Z,16.43
2024-01-21T15:55:14.858Z,7.60
2024-01-21T15:57:43.814Z,7.47
2024-01-21T16:00:14.375Z,6.97
2024-01-21T16:02:42.892Z,7.93
2024-01-21T16:05:11.462Z,7.77
2024-01-21T16:07:40.206Z,7.17
2024-01-21T16:10:10.020Z,8.03
2024-01-21T16:12:38.590Z,6.03
2024-01-21T16:15:07.901Z,8.40
2024-01-21T16:17:38.375Z,10.07
2024-01-21T16:20:07.964Z,8.03
2024-01-21T16:22:36.452Z,10.03
2024-01-21T16:25:06.099Z,9.23
2024-01-21T16:27:34.661Z,10.87
2024-01-21T16:30:03.584Z,11.67
2024-01-21T16:32:32.118Z,11.60
2024-01-21T16:35:02.820Z,13.13
2024-01-21T16:37:31.777Z,9.80
2024-01-21T16:40:01.035Z,13.90
2024-01-21T16:42:30.462Z,13.50
2024-01-21T16:45:00.710Z,15.20
2024-01-21T16:47:29.213Z,12.93
2024-01-21T16:49:57.663Z,16.57
2024-01-21T16:52:33.696Z,15.70
2024-01-21T16:55:02.546Z,30.17
2024-01-21T16:57:31.766Z,20.73
2024-01-21T17:00:05.804Z,16.23
2024-01-21T17:02:34.316Z,19.53
2024-01-21T17:05:02.933Z,11.57
2024-01-21T17:07:33.117Z,10.60
2024-01-21T17:10:04.857Z,14.00
2024-01-21T17:12:37.536Z,11.00
2024-01-21T17:15:06.894Z,9.60
2024-01-21T17:17:35.299Z,9.97
2024-01-21T17:20:03.756Z,11.43
2024-01-21T17:22:33.562Z,9.67
2024-01-21T17:25:02.840Z,7.63
2024-01-21T17:27:33.683Z,7.13
2024-01-21T17:30:02.328Z,15.03
2024-01-21T17:32:31.020Z,58.37
2024-01-21T17:34:59.680Z,8.53
2024-01-21T17:37:28.316Z,12.50
2024-01-21T17:39:58.228Z,13.90
2024-01-21T17:42:26.568Z,20.80
2024-01-21T17:44:55.279Z,38.77
2024-01-21T17:47:23.721Z,14.83
2024-01-21T17:49:52.134Z,22.60
2024-01-21T17:52:20.460Z,16.20
2024-01-21T17:54:49.042Z,15.20
2024-01-21T17:57:19.244Z,10.97
2024-01-21T17:59:48.033Z,13.40
2024-01-21T18:02:17.116Z,18.23
2024-01-21T18:04:45.487Z,13.63
2024-01-21T18:07:14.902Z,13.70
2024-01-21T18:09:43.389Z,13.83
2024-01-21T18:12:11.941Z,16.90
2024-01-21T18:14:43.296Z,9.27
2024-01-21T18:17:12.097Z,9.83
2024-01-21T18:19:43.481Z,7.77
2024-01-21T18:22:13.470Z,7.67
2024-01-21T18:24:46.870Z,8.87
2024-01-21T18:27:15.239Z,8.40
2024-01-21T18:29:45.585Z,10.90
2024-01-21T18:32:18.934Z,9.03
2024-01-21T18:34:49.596Z,9.20
2024-01-21T18:37:18.066Z,8.10
2024-01-21T18:39:47.696Z,9.10
2024-01-21T18:42:16.901Z,8.80
2024-01-21T18:44:47.208Z,9.77
2024-01-21T18:47:17.326Z,9.23
2024-01-21T18:49:46.799Z,10.73
2024-01-21T18:52:16.269Z,9.20
2024-01-21T18:54:44.756Z,9.70
2024-01-21T18:57:14.946Z,9.80
2024-01-21T18:59:47.325Z,10.47
2024-01-21T19:02:18.477Z,10.37
2024-01-21T19:04:49.669Z,11.70
2024-01-21T19:07:18.806Z,15.30
2024-01-21T19:09:47.576Z,11.73
2024-01-21T19:12:20.822Z,10.67
2024-01-21T19:14:52.029Z,12.57
2024-01-21T19:17:21.847Z,10.17
2024-01-21T19:19:50.285Z,17.70
2024-01-21T19:22:19.180Z,11.80
2024-01-21T19:24:48.038Z,10.50
2024-01-21T19:27:18.065Z,9.83
2024-01-21T19:29:47.601Z,10.43
2024-01-21T19:32:16.176Z,9.17
2024-01-21T19:34:46.752Z,10.53
2024-01-21T19:37:15.135Z,11.03
2024-01-21T19:39:43.497Z,11.30
2024-01-21T19:42:12.189Z,10.90
2024-01-21T19:44:41.219Z,10.40
2024-01-21T19:47:09.604Z,11.33
2024-01-21T19:49:38.816Z,11.57
2024-01-21T19:52:09.462Z,10.17
2024-01-21T19:54:37.986Z,11.70
2024-01-21T19:57:07.626Z,12.17
2024-01-21T19:59:36.548Z,12.00
2024-01-21T20:02:05.107Z,13.13
2024-01-21T20:04:33.530Z,11.53
2024-01-21T20:07:02.615Z,11.83
2024-01-21T20:09:32.429Z,14.33
2024-01-21T20:12:01.002Z,13.73
2024-01-21T20:14:29.444Z,11.70
2024-01-21T20:16:57.827Z,10.93
2024-01-21T20:19:26.981Z,11.37
2024-01-21T20:21:55.294Z,10.13
2024-01-21T20:24:23.731Z,11.30
2024-01-21T20:26:54.292Z,11.10
2024-01-21T20:29:22.677Z,10.40
2024-01-21T20:31:52.571Z,12.13
2024-01-21T20:34:21.535Z,10.00
2024-01-21T20:36:50.581Z,10.73
2024-01-21T20:39:18.955Z,10.67
2024-01-21T20:41:47.518Z,11.77
2024-01-21T20:44:17.272Z,12.50
2024-01-21T20:46:45.630Z,12.10
2024-01-21T20:49:14.285Z,11.53
2024-01-21T20:51:43.439Z,13.23
2024-01-21T20:54:12.138Z,12.70
2024-01-21T20:56:41.107Z,16.97
2024-01-21T20:59:10.198Z,28.47
2024-01-21T21:01:40.000Z,19.47
2024-01-21T21:04:08.964Z,17.50
2024-01-21T21:06:40.152Z,21.70
2024-01-21T21:09:09.024Z,19.60
2024-01-21T21:11:37.476Z,14.10
2024-01-21T21:14:05.964Z,12.10
2024-01-21T21:16:34.484Z,13.30
2024-01-21T21:19:04.582Z,11.80
2024-01-21T21:21:33.163Z,26.73
2024-01-21T21:24:03.528Z,34.30
2024-01-21T21:26:31.918Z,24.57
2024-01-21T21:29:00.338Z,28.80
2024-01-21T21:31:28.690Z,51.97
2024-01-21T21:33:57.831Z,42.33
2024-01-21T21:36:27.732Z,23.67
2024-01-21T21:38:56.079Z,18.90
2024-01-21T21:41:24.711Z,16.13
2024-01-21T21:43:54.094Z,15.50
2024-01-21T21:46:22.465Z,12.53
2024-01-21T21:48:50.990Z,11.13
2024-01-21T21:51:22.218Z,63.03
2024-01-21T21:53:54.542Z,30.70
2024-01-21T21:56:22.970Z,17.60
2024-01-21T21:58:52.993Z,17.47
2024-01-21T22:01:22.198Z,14.60
2024-01-21T22:03:51.792Z,14.47
2024-01-21T22:06:20.519Z,12.87
2024-01-21T22:08:49.138Z,13.03
2024-01-21T22:11:21.559Z,12.47
2024-01-21T22:13:50.228Z,12.90
2024-01-21T22:16:19.027Z,13.47
2024-01-21T22:18:47.636Z,13.90
2024-01-21T22:21:20.596Z,12.20
2024-01-21T22:23:49.674Z,13.80
2024-01-21T22:26:19.024Z,13.30
2024-01-21T22:28:48.807Z,13.50
2024-01-21T22:31:17.287Z,12.33
2024-01-21T22:33:46.302Z,12.03
2024-01-21T22:36:14.918Z,12.63
2024-01-21T22:38:43.690Z,12.83
2024-01-21T22:41:12.672Z,12.10
2024-01-21T22:43:40.985Z,13.17
2024-01-21T22:46:16.790Z,13.10
2024-01-21T22:48:46.243Z,15.67
2024-01-21T22:51:15.215Z,15.40
2024-01-21T22:53:44.628Z,17.10
2024-01-21T22:56:14.231Z,16.50
2024-01-21T22:58:42.718Z,13.73
2024-01-21T23:01:12.589Z,16.07
2024-01-21T23:03:41.148Z,15.80
2024-01-21T23:06:11.164Z,16.60
2024-01-21T23:08:39.759Z,15.80
2024-01-21T23:11:09.009Z,19.40
2024-01-21T23:13:37.355Z,17.47
2024-01-21T23:16:07.836Z,16.50
2024-01-21T23:18:37.835Z,15.73
2024-01-21T23:21:06.908Z,15.80
2024-01-21T23:23:35.259Z,15.87
2024-01-21T23:26:04.060Z,15.10
2024-01-21T23:28:32.635Z,17.03
2024-01-21T23:31:01.802Z,15.27
2024-01-21T23:33:30.553Z,15.47
2024-01-21T23:36:00.549Z,15.70
2024-01-21T23:38:28.962Z,13.87
2024-01-21T23:40:57.371Z,14.67
2024-01-21T23:43:26.551Z,17.00
2024-01-21T23:45:55.185Z,15.17
2024-01-21T23:48:23.631Z,15.20
2024-01-21T23:50:52.165Z,16.13
2024-01-21T23:53:22.232Z,13.73
2024-01-21T23:55:50.796Z,15.50
2024-01-21T23:58:19.149Z,16.87
